Data for 11/27/2009

Time Sea-Level Adjusted Pressure Absolute Pressure Temperature Relative Humidity Dew Point   
(mb) (inHg) (mb) (inHg) (C) (F) (%) (C) (F)
00:05 1015 29.97 844 24.92 3.4 38 49 -6.3 20.7
00:10 1015 29.97 844 24.92 3.3 38 47 -6.9 19.5
00:15 1015 29.97 844 24.92 3.8 38.8 49 -6 21.3
00:20 1015 29.97 844 24.92 3.4 38.1 51 -5.8 21.6
00:25 1015 29.97 844 24.92 3.3 37.9 51 -6 21.2
00:30 1015 29.97 844 24.92 3.2 37.8 52 -5.6 22
00:35 1015 29.97 844 24.92 2.6 36.6 53 -6.2 20.9
00:40 1015 29.97 844 24.92 3.2 37.7 46 -7.5 18.5
00:45 1015 29.97 844 24.92 4 39.3 47 -6.2 20.8
00:50 1015 29.97 844 24.92 3.4 38.2 47 -6.9 19.5
00:55 1015 29.97 844 24.92 3.7 38.6 45 -7 19.4
01:00 1015 29.97 844 24.92 3.8 38.9 47 -6.4 20.4
01:05 1014 29.94 844 24.92 3.3 38 49 -6.4 20.5
01:10 1014 29.94 844 24.92 3.2 37.8 49 -6.6 20.1
01:15 1015 29.97 844 24.92 3.2 37.8 48 -6.7 19.9
01:20 1015 29.97 844 24.92 3.5 38.3 49 -6.2 20.8
01:25 1014 29.94 844 24.92 3.1 37.6 50 -6.4 20.6
01:30 1014 29.94 844 24.92 3.2 37.7 49 -6.6 20.1
01:35 1014 29.94 843 24.89 3.7 38.6 47 -6.6 20.2
01:40 1014 29.94 843 24.89 3.8 38.9 45 -7.1 19.2
01:45 1014 29.94 844 24.92 4.3 39.7 44 -7 19.4
01:50 1014 29.94 843 24.89 4.2 39.6 46 -6.5 20.3
01:55 1014 29.94 843 24.89 3.8 38.9 46 -6.7 20
02:00 1014 29.94 843 24.89 3.5 38.3 47 -6.7 20
02:05 1014 29.94 843 24.89 3.1 37.5 50 -6.3 20.7
02:10 1014 29.94 843 24.89 2.9 37.2 49 -6.9 19.6
02:15 1014 29.94 843 24.89 3.1 37.6 48 -7 19.5
02:20 1014 29.94 843 24.89 3.4 38.1 47 -6.8 19.8
02:25 1014 29.94 843 24.89 3.4 38 48 -6.8 19.8
02:30 1014 29.94 844 24.92 3.3 38 48 -6.7 20
02:35 1014 29.94 844 24.92 3.4 38 47 -6.9 19.5
02:40 1014 29.94 844 24.92 3.5 38.4 46 -6.9 19.5
02:45 1014 29.94 844 24.92 3.5 38.4 48 -6.6 20.2
02:50 1014 29.94 843 24.89 3.5 38.2 47 -6.7 19.9
02:55 1014 29.94 843 24.89 3.3 37.9 48 -6.6 20.1
03:00 1014 29.94 843 24.89 3.7 38.6 45 -7.1 19.2
03:05 1014 29.94 843 24.89 3.6 38.5 47 -6.7 19.9
03:10 1014 29.94 843 24.89 3.5 38.3 47 -6.8 19.8
03:15 1014 29.94 843 24.89 3.6 38.5 47 -6.7 20
03:20 1014 29.94 843 24.89 3.7 38.7 46 -6.9 19.5
03:25 1014 29.94 843 24.89 3.8 38.8 45 -6.9 19.5
03:30 1014 29.94 843 24.89 3.7 38.7 46 -6.7 19.9
03:35 1014 29.94 843 24.89 3.6 38.4 48 -6.3 20.6
03:40 1014 29.94 843 24.89 3.1 37.7 52 -5.9 21.4
03:45 1014 29.94 843 24.89 2.4 36.4 55 -5.7 21.7
03:50 1014 29.94 843 24.89 2.5 36.6 50 -6.8 19.7
03:55 1014 29.94 843 24.89 3.1 37.6 49 -6.5 20.3
04:00 1014 29.94 843 24.89 3 37.5 50 -6.3 20.7
04:05 1014 29.94 843 24.89 3.1 37.6 49 -6.7 20
04:10 1014 29.94 843 24.89 3.3 37.9 48 -6.8 19.8
04:15 1014 29.94 843 24.89 3.5 38.3 48 -6.5 20.3
04:20 1014 29.94 843 24.89 3.4 38.1 49 -6.4 20.5
04:25 1014 29.94 843 24.89 3.3 38 49 -6.4 20.5
04:30 1014 29.94 843 24.89 3.4 38.1 50 -6.1 21
04:35 1014 29.94 843 24.89 3.4 38.2 49 -6.3 20.6
04:40 1014 29.94 843 24.89 3.4 38.1 49 -6.3 20.7
04:45 1014 29.94 843 24.89 3.5 38.4 48 -6.5 20.3
04:50 1014 29.94 843 24.89 3.6 38.5 48 -6.4 20.4
04:55 1014 29.94 843 24.89 3.7 38.6 48 -6.3 20.7
05:00 1014 29.94 843 24.89 3.9 38.9 47 -6.4 20.4
05:05 1014 29.94 843 24.89 3.8 38.9 47 -6.4 20.5
05:10 1014 29.94 843 24.89 3.7 38.6 51 -5.6 22
05:15 1014 29.94 843 24.89 3.4 38.2 49 -6.3 20.7
05:20 1014 29.94 843 24.89 3.5 38.3 50 -6.1 21
05:25 1014 29.94 843 24.89 3.4 38.1 51 -5.8 21.5
05:30 1014 29.94 843 24.89 3.1 37.6 51 -6 21.2
05:35 1014 29.94 843 24.89 3.3 37.9 50 -6.1 21
05:40 1014 29.94 843 24.89 3.3 37.9 48 -6.7 19.9
05:45 1014 29.94 843 24.89 3.5 38.4 49 -6.3 20.7
05:50 1014 29.94 843 24.89 3.7 38.6 49 -6 21.2
05:55 1014 29.94 843 24.89 3.8 38.9 47 -6.5 20.2
06:00 1014 29.94 843 24.89 3.9 39.1 50 -5.6 22
06:05 1014 29.94 843 24.89 3.5 38.3 53 -5.3 22.5
06:10 1013 29.91 843 24.89 3.2 37.7 51 -6 21.2
06:15 1013 29.91 843 24.89 3.1 37.5 56 -4.9 23.1
06:20 1013 29.91 843 24.89 3 37.4 49 -6.7 20
06:25 1013 29.91 842 24.86 3.4 38.1 51 -5.8 21.6
06:30 1013 29.91 842 24.86 3 37.5 53 -5.7 21.7
06:35 1013 29.91 842 24.86 3.1 37.6 51 -6.1 21
06:40 1013 29.91 842 24.86 3.4 38.1 53 -5.3 22.5
06:45 1013 29.91 842 24.86 2.9 37.2 57 -4.8 23.4
06:50 1013 29.91 842 24.86 2.8 37 51 -6.4 20.5
06:55 1013 29.91 842 24.86 3.3 37.9 54 -5.2 22.6
07:00 1013 29.91 842 24.86 2.8 37.1 56 -5.2 22.7
07:05 1013 29.91 842 24.86 2.9 37.2 54 -5.4 22.3
07:10 1013 29.91 842 24.86 3.4 38.1 50 -6 21.1
07:15 1013 29.91 842 24.86 3.8 38.8 49 -6 21.2
07:20 1013 29.91 842 24.86 3.9 38.9 49 -5.8 21.5
07:25 1013 29.91 842 24.86 4 39.1 48 -6.1 21.1
07:30 1012 29.88 842 24.86 4.5 40 45 -6.4 20.5
07:35 1012 29.88 842 24.86 4.6 40.3 47 -5.6 21.9
07:40 1012 29.88 842 24.86 4.4 39.9 47 -6.1 21.1
07:45 1012 29.88 842 24.86 4.4 39.9 47 -5.9 21.4
07:50 1013 29.91 842 24.86 4.5 40 47 -5.9 21.3
07:55 1013 29.91 842 24.86 4.6 40.2 47 -5.8 21.5
08:00 1013 29.91 842 24.86 4.4 39.8 50 -5.3 22.5
08:05 1013 29.91 842 24.86 4.2 39.5 54 -4.3 24.3
08:10 1013 29.91 842 24.86 3.4 38.1 58 -4.1 24.6
08:15 1013 29.91 842 24.86 3.1 37.6 54 -5.3 22.4
08:20 1013 29.91 842 24.86 3 37.5 62 -3.6 25.6
08:25 1013 29.91 842 24.86 2.4 36.4 62 -4.1 24.7
08:30 1013 29.91 842 24.86 2.7 36.9 59 -4.6 23.8
08:35 1013 29.91 842 24.86 2.9 37.3 58 -4.5 23.9
08:40 1013 29.91 842 24.86 3 37.4 58 -4.5 23.9
08:45 1013 29.91 842 24.86 2.9 37.2 57 -4.7 23.5
08:50 1013 29.91 842 24.86 3.2 37.7 53 -5.4 22.2
08:55 1013 29.91 842 24.86 3.7 38.6 52 -5.3 22.4
09:00 1013 29.91 842 24.86 3.9 39 50 -5.6 21.9
09:05 1013 29.91 842 24.86 4 39.2 50 -5.6 21.9
09:10 1013 29.91 842 24.86 3.9 39.1 50 -5.5 22
09:15 1013 29.91 842 24.86 3.9 39 50 -5.7 21.8
09:20 1013 29.91 842 24.86 4.1 39.3 50 -5.3 22.4
09:25 1013 29.91 842 24.86 4.3 39.7 49 -5.4 22.3
09:30 1013 29.91 842 24.86 4.4 40 50 -5.1 22.8
09:35 1013 29.91 842 24.86 4.4 39.8 54 -4.2 24.5
09:40 1013 29.91 842 24.86 3.7 38.6 57 -4 24.9
09:45 1013 29.91 842 24.86 3.3 38 61 -3.4 25.8
09:50 1013 29.91 842 24.86 3.1 37.6 59 -4 24.7
09:55 1013 29.91 842 24.86 3.1 37.6 60 -4 24.8
10:00 1013 29.91 842 24.86 3 37.5 59 -4.2 24.4
10:05 1013 29.91 842 24.86 3.2 37.8 57 -4.5 23.9
10:10 1013 29.91 842 24.86 3.5 38.3 54 -4.8 23.3
10:15 1013 29.91 842 24.86 3.7 38.7 52 -5.1 22.8
10:20 1013 29.91 842 24.86 4 39.3 53 -4.7 23.5
10:25 1013 29.91 842 24.86 4.1 39.4 53 -4.7 23.6
10:30 1013 29.91 842 24.86 4.2 39.5 50 -5.2 22.6
10:35 1013 29.91 842 24.86 4.4 39.9 47 -5.8 21.6
10:40 1013 29.91 842 24.86 4.7 40.4 48 -5.5 22.1
10:45 1013 29.91 842 24.86 4.6 40.3 52 -4.3 24.3
10:50 1013 29.91 842 24.86 4.5 40.1 53 -4.3 24.3
10:55 1013 29.91 842 24.86 4.6 40.2 52 -4.5 24
11:00 1013 29.91 842 24.86 4.7 40.4 52 -4.3 24.2
11:05 1012 29.88 842 24.86 4.7 40.5 51 -4.6 23.8
11:10 1012 29.88 842 24.86 4.9 40.9 48 -5.1 22.8
11:15 1012 29.88 842 24.86 5.1 41.2 48 -5 22.9
11:20 1012 29.88 842 24.86 5.1 41.2 50 -4.4 24.1
11:25 1012 29.88 842 24.86 5.1 41.2 49 -4.6 23.7
11:30 1012 29.88 842 24.86 5.3 41.6 49 -4.5 23.9
11:35 1012 29.88 841 24.83 5.6 42.1 47 -4.9 23.2
11:40 1012 29.88 841 24.83 6 42.7 47 -4.6 23.7
11:45 1012 29.88 841 24.83 6 42.9 47 -4.5 23.8
11:50 1012 29.88 841 24.83 6.4 43.5 45 -4.7 23.6
11:55 1012 29.88 841 24.83 6.3 43.4 45 -4.7 23.5
12:00 1012 29.88 841 24.83 6.2 43.2 47 -4.4 24.1
12:05 1012 29.88 841 24.83 6.2 43.2 47 -4.3 24.2
12:10 1012 29.88 841 24.83 6.6 43.9 45 -4.6 23.7
12:15 1012 29.88 841 24.83 6.3 43.3 44 -5.1 22.9
12:20 1012 29.88 841 24.83 6.3 43.3 44 -5.2 22.7
12:25 1012 29.88 841 24.83 6.5 43.8 43 -5.2 22.6
12:30 1012 29.88 841 24.83 6.5 43.8 44 -4.8 23.4
12:35 1012 29.88 841 24.83 6.7 44.1 41 -5.6 22
12:40 1011 29.85 841 24.83 6.8 44.3 40 -5.9 21.3
12:45 1011 29.85 841 24.83 7.2 44.9 40 -5.7 21.8
12:50 1011 29.85 841 24.83 7.7 45.8 38 -5.9 21.4
12:55 1011 29.85 841 24.83 7.9 46.3 37 -6 21.2
13:00 1011 29.85 841 24.83 8.3 46.9 37 -5.6 22
13:05 1011 29.85 841 24.83 8.4 47.1 36 -5.9 21.4
13:10 1011 29.85 841 24.83 8.3 47 36 -5.8 21.5
13:15 1011 29.85 841 24.83 8.3 46.9 39 -5 22.9
13:20 1011 29.85 841 24.83 8.2 46.8 38 -5.3 22.4
13:25 1011 29.85 841 24.83 7.3 45.1 45 -3.9 25
13:30 1011 29.85 841 24.83 6.4 43.6 45 -4.5 23.9
13:35 1011 29.85 841 24.83 6.5 43.7 45 -4.6 23.7
13:40 1011 29.85 841 24.83 6 42.9 45 -4.9 23.1
13:45 1011 29.85 840 24.81 6.4 43.4 44 -4.9 23.1
13:50 1011 29.85 840 24.81 6.2 43.2 43 -5.4 22.2
13:55 1011 29.85 840 24.81 6 42.9 46 -4.6 23.7
14:00 1011 29.85 840 24.81 6.2 43.1 44 -5.2 22.6
14:05 1011 29.85 840 24.81 6.3 43.4 43 -5.3 22.5
14:10 1011 29.85 840 24.81 6.3 43.4 43 -5.2 22.6
14:15 1011 29.85 840 24.81 6.3 43.4 45 -4.8 23.3
14:20 1011 29.85 840 24.81 6 42.7 45 -5 23.1
14:25 1011 29.85 840 24.81 6.1 42.9 48 -4.1 24.6
14:30 1011 29.85 840 24.81 6.1 43 47 -4.4 24.2
14:35 1011 29.85 840 24.81 6 42.8 48 -4.2 24.5
14:40 1011 29.85 840 24.81 5.8 42.5 48 -4.5 24
14:45 1011 29.85 840 24.81 6.1 42.9 46 -4.6 23.7
14:50 1011 29.85 840 24.81 6.3 43.4 45 -4.7 23.6
14:55 1011 29.85 841 24.83 6.3 43.4 45 -4.8 23.4
15:00 1011 29.85 841 24.83 6.4 43.5 43 -5.3 22.4
15:05 1011 29.85 841 24.83 6.4 43.6 42 -5.6 21.9
15:10 1011 29.85 841 24.83 6.5 43.7 45 -4.6 23.7
15:15 1012 29.88 841 24.83 6.5 43.7 43 -5.3 22.5
15:20 1011 29.85 841 24.83 6.5 43.8 41 -5.6 21.9
15:25 1012 29.88 841 24.83 6.5 43.7 44 -5 23
15:30 1012 29.88 841 24.83 6.4 43.6 46 -4.4 24.1
15:35 1012 29.88 841 24.83 6.3 43.3 44 -5.1 22.8
15:40 1012 29.88 841 24.83 6 42.8 46 -4.8 23.3
15:45 1012 29.88 841 24.83 5.9 42.6 45 -5 22.9
15:50 1012 29.88 841 24.83 6 42.7 43 -5.6 21.9
15:55 1012 29.88 841 24.83 6 42.7 46 -4.7 23.6
16:00 1012 29.88 841 24.83 5.7 42.3 45 -5.3 22.4
16:05 1012 29.88 841 24.83 5.9 42.6 44 -5.5 22.2
16:10 1012 29.88 841 24.83 5.9 42.6 45 -5.1 22.7
16:15 1012 29.88 841 24.83 5.7 42.3 45 -5.3 22.4
16:20 1012 29.88 841 24.83 5.6 42.2 45 -5.4 22.2
16:25 1012 29.88 841 24.83 5.6 42.1 46 -5.1 22.8
16:30 1012 29.88 841 24.83 5.6 42.1 46 -5.1 22.9
16:35 1012 29.88 841 24.83 5.5 41.9 47 -4.8 23.3
16:40 1012 29.88 841 24.83 5.3 41.6 48 -4.8 23.3
16:45 1012 29.88 841 24.83 5.2 41.4 49 -4.8 23.4
16:50 1012 29.88 841 24.83 5.1 41.2 50 -4.6 23.8
16:55 1012 29.88 841 24.83 5.1 41.2 50 -4.4 24.1
17:00 1012 29.88 842 24.86 4.8 40.6 52 -4.3 24.2
17:05 1012 29.88 842 24.86 4.7 40.4 52 -4.4 24.1
17:10 1012 29.88 842 24.86 4.6 40.3 51 -4.7 23.6
17:15 1012 29.88 842 24.86 4.7 40.5 51 -4.6 23.6
17:20 1012 29.88 842 24.86 4.6 40.3 49 -5.2 22.7
17:25 1013 29.91 842 24.86 4.8 40.6 50 -4.8 23.4
17:30 1013 29.91 842 24.86 4.9 40.7 48 -5.1 22.8
17:35 1013 29.91 842 24.86 5.1 41.1 48 -5.1 22.9
17:40 1013 29.91 842 24.86 5.3 41.5 48 -4.9 23.2
17:45 1013 29.91 842 24.86 5.2 41.4 48 -4.9 23.2
17:50 1013 29.91 842 24.86 5 41.1 49 -4.8 23.4
17:55 1013 29.91 842 24.86 5.1 41.2 48 -5 23.1
18:00 1013 29.91 842 24.86 5.3 41.5 48 -4.9 23.2
18:05 1013 29.91 842 24.86 5.4 41.6 47 -5 23
18:10 1013 29.91 842 24.86 5.3 41.5 50 -4.2 24.5
18:15 1013 29.91 842 24.86 4.9 40.8 51 -4.5 23.9
18:20 1013 29.91 842 24.86 4.9 40.9 51 -4.3 24.2
18:25 1013 29.91 842 24.86 5 41.1 50 -4.5 23.9
18:30 1013 29.91 842 24.86 4.9 40.9 50 -4.7 23.5
18:35 1013 29.91 842 24.86 5.1 41.1 49 -4.7 23.5
18:40 1013 29.91 843 24.89 4.9 40.7 52 -4.3 24.3
18:45 1013 29.91 843 24.89 4.5 40 51 -4.9 23.2
18:50 1013 29.91 843 24.89 4.6 40.4 51 -4.6 23.8
18:55 1013 29.91 843 24.89 4.8 40.6 50 -4.8 23.4
19:00 1013 29.91 843 24.89 4.9 40.8 50 -4.5 23.9
19:05 1013 29.91 843 24.89 5.1 41.1 51 -4.3 24.2
19:10 1013 29.91 843 24.89 5.2 41.3 49 -4.6 23.8
19:15 1013 29.91 843 24.89 5.2 41.4 48 -4.8 23.4
19:20 1013 29.91 843 24.89 5.2 41.4 49 -4.5 23.9
19:25 1014 29.94 843 24.89 5.1 41.1 51 -4.3 24.3
19:30 1014 29.94 843 24.89 4.9 40.8 51 -4.4 24.1
19:35 1014 29.94 843 24.89 4.9 40.9 52 -4.2 24.5
19:40 1014 29.94 843 24.89 5 41 51 -4.3 24.3
19:45 1014 29.94 843 24.89 4.9 40.9 52 -4.1 24.7
19:50 1014 29.94 843 24.89 4.9 40.8 53 -4 24.8
19:55 1014 29.94 843 24.89 4.8 40.7 54 -3.6 25.5
20:00 1014 29.94 843 24.89 4.3 39.7 58 -3.2 26.3
20:05 1014 29.94 843 24.89 3.9 39 60 -3.2 26.2
20:10 1014 29.94 843 24.89 3.8 38.9 60 -3.3 26.1
20:15 1014 29.94 843 24.89 4.2 39.6 62 -2.5 27.5
20:20 1014 29.94 843 24.89 4.5 40.2 60 -2.5 27.4
20:25 1014 29.94 843 24.89 4.3 39.8 63 -2.1 28.3
20:30 1014 29.94 843 24.89 4.1 39.4 65 -1.9 28.6
20:35 1014 29.94 843 24.89 4 39.3 66 -1.7 28.9
20:40 1014 29.94 843 24.89 4 39.3 66 -1.6 29
20:45 1014 29.94 843 24.89 4 39.2 67 -1.6 29.1
20:50 1014 29.94 843 24.89 4 39.3 67 -1.5 29.3
20:55 1014 29.94 844 24.92 4 39.3 68 -1.2 29.8
21:00 1014 29.94 844 24.92 4 39.1 69 -1.1 30
21:05 1014 29.94 844 24.92 3.9 38.9 72 -0.8 30.6
21:10 1015 29.97 844 24.92 3.8 38.8 72 -0.8 30.6
21:15 1015 29.97 844 24.92 3.3 37.9 76 -0.6 30.9
21:20 1015 29.97 844 24.92 2.4 36.3 80 -0.7 30.7
21:25 1015 29.97 844 24.92 1.9 35.4 83 -0.6 30.8
21:30 1015 29.97 844 24.92 1.7 35 85 -0.5 31.1
21:35 1015 29.97 844 24.92 1.5 34.8 88 -0.2 31.6
21:40 1015 29.97 844 24.92 1.5 34.7 89 -0.1 31.8
21:45 1015 29.97 844 24.92 1.5 34.7 90 0 32
21:50 1015 29.97 844 24.92 1.6 34.9 89 -0 32
21:55 1015 29.97 844 24.92 1.7 35.1 89 0.2 32.3
22:00 1015 29.97 844 24.92 1.8 35.2 89 0.2 32.4
22:05 1015 29.97 844 24.92 1.8 35.2 89 0.2 32.4
22:10 1015 29.97 844 24.92 1.8 35.3 90 0.3 32.6
22:15 1015 29.97 844 24.92 1.8 35.2 90 0.3 32.5
22:20 1015 29.97 844 24.92 1.7 35.1 90 0.3 32.6
22:25 1015 29.97 844 24.92 1.7 35.1 90 0.3 32.5
22:30 1015 29.97 844 24.92 1.7 35.1 91 0.3 32.6
22:35 1015 29.97 844 24.92 1.6 34.9 91 0.3 32.6
22:40 1015 29.97 845 24.95 1.5 34.8 92 0.3 32.6
22:45 1015 29.97 845 24.95 1.6 34.8 92 0.4 32.6
22:50 1015 29.97 845 24.95 1.6 34.9 91 0.3 32.5
22:55 1015 29.97 845 24.95 1.6 34.9 91 0.3 32.6
23:00 1016 30 845 24.95 1.8 35.3 90 0.4 32.7
23:05 1016 30 845 24.95 1.7 35.1 91 0.4 32.6
23:10 1016 30 845 24.95 1.6 34.9 91 0.3 32.5
23:15 1016 30 845 24.95 1.4 34.5 93 0.3 32.6
23:20 1016 30 845 24.95 1.3 34.4 92 0.2 32.4
23:25 1016 30 845 24.95 1.2 34.1 93 0.1 32.3
23:30 1016 30 845 24.95 1 33.8 94 0.1 32.2
23:35 1016 30 845 24.95 0.8 33.5 94 0 32
23:40 1016 30 845 24.95 0.7 33.2 95 0 32
23:45 1016 30 845 24.95 0.4 32.7 96 -0.1 31.8
23:50 1016 30 845 24.95 0.4 32.7 97 -0.1 31.9
23:55 1016 30 845 24.95 0.3 32.5 97 -0.1 31.8
24:00 1016 30 845 24.95 0.3 32.5 97 -0.1 31.9